Latest Coastal Weather Observations for Geelong Racecourse

IDV60701

Issued at 6:21 pm EST Tuesday 17 September 2019 (issued every 10 minutes, with the page automatically refreshed every 10 minutes)

About coastal observations | Map of coastal stations | Coastal observations for VIC | Marine services | Other Formats
Station Details ID: 087184 Name: GEELONG RACECOURSE Lat: -38.17 Lon: 144.38 Height: 12.9 m
Data from the previous 72 hours. | See also: Recent months at Geelong Racecourse
Date/Time
EST
Wind Sea
Height
m
Swell Vis
km
Cloud Weather Temp
°C
Press
hPa
Rain since
9am
mm
Dir  Spd
kts
Gust
kts
Height
m
Period
s
Dir
17/06:00pm SSE 7 9 - - - - - - - 9.4 1028.5 0.0
17/05:30pm SSE 8 11 - - - - - - - 10.1 1028.4 0.0
17/05:00pm S 10 13 - - - - - - - 10.6 1028.5 0.0
17/04:30pm S 9 14 - - - - - - - 11.0 1028.2 0.0
17/04:00pm S 8 12 - - - - - - - 11.8 1028.1 0.0
17/03:30pm S 10 13 - - - - - - - 11.9 1028.0 0.0
17/03:00pm S 9 13 - - - - - - - 12.0 1028.1 0.0
17/02:30pm SSE 7 13 - - - - - - - 12.5 1028.0 0.0
17/02:00pm SE 7 13 - - - - - - - 12.6 1028.1 0.0
17/01:30pm SE 6 11 - - - - - - - 12.1 1028.4 0.0
17/01:00pm SSE 8 12 - - - - - - - 12.6 1028.6 0.0
17/12:30pm SSE 7 13 - - - - - - - 12.6 1028.9 0.0
17/12:00pm SE 7 11 - - - - - - - 12.3 1028.9 0.0
17/11:30am SSE 7 12 - - - - - - - 12.3 1029.0 0.0
17/11:00am SSE 9 13 - - - - - - - 12.0 1029.3 0.0
17/10:30am S 10 14 - - - - - - - 11.3 1029.3 0.0
17/10:00am SSE 8 12 - - - - - - - 11.1 1029.1 0.0
17/09:30am SSE 7 11 - - - - - - - 10.3 1029.0 0.0
17/09:00am SSE 8 13 - - - - - - - 9.7 1029.1 0.2
17/08:30am SSE 4 5 - - - - - - - 8.4 1028.8 0.2
17/08:00am S 2 4 - - - - - - - 5.4 1028.5 0.2
17/07:30am SW 1 1 - - - - - - - 4.5 1028.5 0.2
17/07:00am CALM 0 0 - - - - - - - 3.8 1028.1 0.2
17/06:30am CALM 0 0 - - - - - - - 3.8 1027.9 0.2
17/06:00am CALM 0 1 - - - - - - - 4.5 1027.5 0.2
17/05:30am SSW 1 4 - - - - - - - 5.7 1027.3 0.2
17/05:00am WSW 2 4 - - - - - - - 5.7 1027.1 0.2
17/04:30am SSE 3 5 - - - - - - - 7.2 1026.9 0.2
17/04:00am SSE 6 9 - - - - - - - 8.0 1026.8 0.2
17/03:30am SE 3 5 - - - - - - - 7.1 1026.6 0.2
17/03:00am S 5 7 - - - - - - - 6.6 1026.5 0.2
17/02:30am SW 2 6 - - - - - - - 5.1 1026.9 0.2
17/02:00am SW 4 6 - - - - - - - 6.0 1026.8 0.2
17/01:30am S 5 7 - - - - - - - 6.1 1026.9 0.2
17/01:00am SSW 2 5 - - - - - - - 4.9 1027.2 0.2
17/12:30am WSW 2 4 - - - - - - - 5.1 1027.3 0.0
17/12:00am WSW 5 6 - - - - - - - 5.7 1027.1 0.0
 
Date/Time
EST
Wind Sea
Height
m
Swell Vis
km
Cloud Weather Temp
°C
Press
hPa
Rain since
9am
mm
Dir  Spd
kts
Gust
kts
Height
m
Period
s
Dir
16/11:30pm WSW 4 5 - - - - - - - 5.9 1027.1 0.0
16/11:00pm S 7 10 - - - - - - - 7.0 1027.0 0.0
16/10:30pm SW 4 8 - - - - - - - 6.8 1027.0 0.0
16/10:00pm SSW 3 4 - - - - - - - 5.9 1026.9 0.0
16/09:30pm WSW 4 6 - - - - - - - 6.2 1026.8 0.0
16/09:00pm WSW 3 5 - - - - - - - 6.1 1026.6 0.0
16/08:30pm SSW 4 6 - - - - - - - 6.8 1026.5 0.0
16/08:00pm SSE 7 10 - - - - - - - 7.5 1026.3 0.0
16/07:30pm SSW 5 5 - - - - - - - 7.2 1025.9 0.0
16/07:00pm SSW 4 6 - - - - - - - 7.5 1025.5 0.0
16/06:30pm S 8 11 - - - - - - - 8.1 1025.2 0.0
16/06:00pm SSW 11 15 - - - - - - - 9.0 1024.8 0.0
16/05:30pm SSW 14 20 - - - - - - - 9.8 1024.2 0.0
16/05:00pm SSW 11 16 - - - - - - - 10.2 1023.9 0.0
16/04:30pm SSW 10 13 - - - - - - - 10.1 1023.8 0.0
16/04:00pm SSW 15 23 - - - - - - - 9.8 1023.5 0.0
16/03:30pm SSW 14 19 - - - - - - - 11.7 1023.2 0.0
16/03:00pm SSW 14 19 - - - - - - - 11.7 1022.9 0.0
16/02:30pm SSW 14 19 - - - - - - - 11.9 1022.7 0.0
16/02:00pm SSW 14 19 - - - - - - - 11.9 1022.3 0.0
16/01:30pm SSW 15 22 - - - - - - - 10.7 1022.3 0.0
16/01:00pm SSW 13 20 - - - - - - - 12.1 1022.0 0.0
16/12:30pm S 16 21 - - - - - - - 12.6 1021.9 0.0
16/12:00pm S 12 18 - - - - - - - 11.7 1021.8 0.0
16/11:30am SSW 11 18 - - - - - - - 11.3 1021.8 0.0
16/11:21am SSW 17 27 - - - - - - - 10.5 1022.0 0.0
16/11:00am SSW 15 21 - - - - - - - 12.3 1021.5 0.0
16/10:30am SSW 14 23 - - - - - - - 11.8 1021.3 0.0
16/10:00am SSW 13 17 - - - - - - - 11.7 1021.1 0.0
16/09:30am SSW 12 16 - - - - - - - 10.9 1021.2 0.0
16/09:00am SW 8 11 - - - - - - - 11.1 1020.9 16.0
16/08:30am SW 6 9 - - - - - - - 10.3 1020.5 16.0
16/08:00am WSW 6 9 - - - - - - - 9.6 1020.1 16.0
16/07:30am W 5 6 - - - - - - - 8.7 1019.9 16.0
16/07:00am W 3 4 - - - - - - - 7.6 1019.6 16.0
16/06:30am W 4 5 - - - - - - - 7.6 1019.1 16.0
16/06:00am WSW 4 6 - - - - - - - 8.1 1018.7 16.0
16/05:30am W 4 6 - - - - - - - 8.4 1018.3 16.0
16/05:00am W 4 5 - - - - - - - 9.0 1017.9 16.0
16/04:30am W 5 7 - - - - - - - 9.3 1017.5 16.0
16/04:00am W 7 9 - - - - - - - 9.4 1017.3 16.0
16/03:30am W 5 8 - - - - - - - 9.8 1017.3 16.0
16/03:00am WNW 5 9 - - - - - - - 10.1 1016.8 16.0
16/02:30am W 5 8 - - - - - - - 10.1 1016.7 16.0
16/02:00am WSW 6 11 - - - - - - - 10.3 1016.7 16.0
16/01:30am W 6 9 - - - - - - - 10.1 1016.8 15.8
16/01:00am W 3 5 - - - - - - - 10.1 1016.9 15.8
16/12:30am W 5 8 - - - - - - - 10.0 1016.4 15.6
16/12:00am WSW 7 10 - - - - - - Recent precip. 10.4 1016.1 14.0
 
Date/Time
EST
Wind Sea
Height
m
Swell Vis
km
Cloud Weather Temp
°C
Press
hPa
Rain since
9am
mm
Dir  Spd
kts
Gust
kts
Height
m
Period
s
Dir
15/11:30pm WSW 9 15 - - - - - - - 10.4 1015.9 14.0
15/11:00pm SW 6 11 - - - - - - - 11.6 1015.3 13.6
15/10:30pm SSW 6 10 - - - - - - - 13.0 1014.9 11.4
15/10:00pm WNW 5 7 - - - - - - - 13.7 1014.5 11.4
15/09:30pm WNW 9 18 - - - - - - - 14.1 1015.0 11.2
15/09:00pm WNW 8 12 - - - - - - Recent precip. 14.1 1014.8 9.8
15/08:30pm NW 4 9 - - - - - - - 14.3 1014.5 9.6
15/08:00pm NNW 10 17 - - - - - - - 14.3 1014.1 9.4
15/07:30pm NNW 11 17 - - - - - - - 14.5 1014.4 8.6
15/07:00pm NW 11 15 - - - - - - - 15.0 1014.5 5.4
15/06:30pm NW 10 16 - - - - - - - 15.3 1015.7 4.8
15/06:00pm NW 7 10 - - - - - - Rain 16.2 1015.7 3.0
15/05:30pm NW 6 10 - - - - - - - 16.1 1014.4 2.8
15/05:00pm NW 7 10 - - - - - - - 15.9 1013.9 2.8
15/04:30pm N 8 13 - - - - - - - 16.4 1013.5 2.2
15/04:00pm WNW 9 16 - - - - - - - 16.5 1014.9 2.0
15/03:30pm WNW 11 18 - - - - - - - 16.7 1015.1 1.8
15/03:00pm NW 11 17 - - - - - - Recent precip. 18.8 1014.2 0.6
15/02:30pm NW 10 16 - - - - - - - 18.6 1013.5 0.4
15/02:00pm NNW 9 16 - - - - - - - 18.8 1013.7 0.4
15/01:30pm NNW 6 10 - - - - - - - 17.5 1014.4 0.4
15/01:00pm WNW 6 10 - - - - - - - 18.2 1014.8 0.0
15/12:30pm WNW 8 13 - - - - - - - 18.9 1015.2 0.0
15/12:00pm WNW 7 10 - - - - - - - 19.2 1015.6 0.0
15/11:30am W 5 7 - - - - - - - 19.3 1015.7 0.0
15/11:00am W 3 5 - - - - - - - 18.8 1016.3 0.0
15/10:30am NW 2 4 - - - - - - - 18.5 1016.4 0.0
15/10:00am NNE 5 7 - - - - - - - 18.3 1016.2 0.0
15/09:30am N 5 8 - - - - - - - 17.2 1016.6 0.0
15/09:00am N 4 6 - - - - - - - 16.6 1016.8 0.4
15/08:30am NNE 3 4 - - - - - - - 14.4 1017.2 0.4
15/08:00am NNW 2 3 - - - - - - - 13.6 1017.5 0.4
15/07:30am NE 2 3 - - - - - - - 13.6 1017.6 0.4
15/07:00am NNW 1 2 - - - - - - - 13.2 1017.4 0.4
15/06:30am N 2 2 - - - - - - - 13.6 1017.4 0.4
15/06:00am N 1 2 - - - - - - - 13.6 1017.1 0.4
15/05:30am N 1 2 - - - - - - - 13.8 1016.7 0.4
15/05:00am NNW 5 7 - - - - - - - 14.3 1016.5 0.4
15/04:30am NNW 5 6 - - - - - - - 13.9 1016.8 0.4
15/04:00am NW 5 7 - - - - - - - 14.3 1017.5 0.2
15/03:30am NW 4 7 - - - - - - - 14.9 1017.9 0.0
15/03:00am NNE 4 5 - - - - - - - 13.4 1017.8 0.0
15/02:30am NNE 4 5 - - - - - - - 13.4 1018.0 0.0
15/02:00am NNE 4 6 - - - - - - - 13.5 1018.5 0.0
15/01:30am N 3 5 - - - - - - - 13.3 1018.9 0.0
15/01:00am N 3 4 - - - - - - - 13.5 1019.3 0.0
15/12:30am N 3 4 - - - - - - - 13.6 1019.6 0.0
15/12:00am N 2 3 - - - - - - - 14.2 1019.9 0.0
 
Date/Time
EST
Wind Sea
Height
m
Swell Vis
km
Cloud Weather Temp
°C
Press
hPa
Rain since
9am
mm
Dir  Spd
kts
Gust
kts
Height
m
Period
s
Dir
14/11:30pm NW 2 4 - - - - - - - 14.7 1020.0 0.0
14/11:00pm WNW 4 6 - - - - - - - 15.1 1020.6 0.0
14/10:30pm WNW 6 10 - - - - - - - 15.2 1020.9 0.0
14/10:00pm NW 5 8 - - - - - - - 15.0 1020.7 0.0
14/09:30pm NW 3 7 - - - - - - - 15.1 1020.9 0.0
14/09:00pm NW 5 9 - - - - - - - 15.4 1020.7 0.0
14/08:30pm NE 3 3 - - - - - - - 15.1 1020.5 0.0
14/08:00pm NW 4 6 - - - - - - - 15.3 1021.0 0.0
14/07:30pm WNW 3 5 - - - - - - - 14.1 1021.4 0.0
14/07:00pm N 3 4 - - - - - - - 14.1 1021.1 0.0
14/06:30pm N 2 3 - - - - - - - 13.6 1021.2 0.0

Other formats

Comma delimited format used in spreadsheet applications
http://www.bom.gov.au/fwo/IDV60701/IDV60701.94857.axf

JavaScript Object Notation format (JSON) in row-major order
http://www.bom.gov.au/fwo/IDV60701/IDV60701.94857.json

Data quality

Most of these data are generated automatically and are frequently updated. Quality checks on data are not normally performed. It is possible for incorrect values to appear. Refer to information at About Latest Weather Observations and please check the disclaimer before using these data.